createdAt,value
2023-04-03T00:02:35.006Z,4.09
2023-04-03T00:05:10.506Z,4.02
2023-04-03T00:07:44.359Z,3.97
2023-04-03T00:10:18.173Z,3.90
2023-04-03T00:12:52.253Z,3.83
2023-04-03T00:15:26.344Z,3.76
2023-04-03T00:18:03.011Z,3.69
2023-04-03T00:20:37.416Z,3.61
2023-04-03T00:23:11.364Z,3.55
2023-04-03T00:25:45.318Z,3.51
2023-04-03T00:28:19.264Z,3.48
2023-04-03T00:30:53.951Z,3.45
2023-04-03T00:33:30.354Z,3.43
2023-04-03T00:36:07.966Z,3.39
2023-04-03T00:38:44.944Z,3.36
2023-04-03T00:41:21.492Z,3.33
2023-04-03T00:43:55.246Z,3.30
2023-04-03T00:46:29.659Z,3.26
2023-04-03T00:49:03.908Z,3.19
2023-04-03T00:51:37.925Z,3.13
2023-04-03T00:54:12.511Z,3.08
2023-04-03T00:56:46.107Z,3.04
2023-04-03T00:59:26.645Z,2.99
2023-04-03T01:02:05.678Z,2.95
2023-04-03T01:04:41.236Z,2.89
2023-04-03T01:07:18.805Z,2.86
2023-04-03T01:09:55.536Z,2.83
2023-04-03T01:12:31.543Z,2.80
2023-04-03T01:15:08.866Z,2.77
2023-04-03T01:17:45.558Z,2.74
2023-04-03T01:20:53.666Z,2.73
2023-04-03T01:24:03.329Z,2.74
2023-04-03T01:26:37.900Z,2.72
2023-04-03T01:29:12.730Z,2.69
2023-04-03T01:32:00.420Z,2.67
2023-04-03T01:34:34.852Z,2.65
2023-04-03T01:37:08.973Z,2.62
2023-04-03T01:39:42.577Z,2.60
2023-04-03T01:42:17.294Z,2.56
2023-04-03T01:44:51.434Z,2.51
2023-04-03T01:47:25.795Z,2.46
2023-04-03T01:50:00.348Z,2.43
2023-04-03T01:52:37.436Z,2.38
2023-04-03T01:55:13.037Z,2.33
2023-04-03T01:57:46.854Z,2.26
2023-04-03T02:00:21.563Z,2.24
2023-04-03T02:02:55.620Z,2.22
2023-04-03T02:05:29.401Z,2.21
2023-04-03T02:08:03.039Z,2.20
2023-04-03T02:10:36.769Z,2.21
2023-04-03T02:13:10.978Z,2.22
2023-04-03T02:15:44.861Z,2.21
2023-04-03T02:18:18.396Z,2.19
2023-04-03T02:20:52.555Z,2.17
2023-04-03T02:23:26.040Z,2.15
2023-04-03T02:26:08.023Z,2.11
2023-04-03T02:28:45.339Z,2.06
2023-04-03T02:31:20.472Z,2.03
2023-04-03T02:33:54.439Z,2.00
2023-04-03T02:36:28.616Z,1.96
2023-04-03T02:39:05.354Z,1.93
2023-04-03T02:41:39.250Z,1.90
2023-04-03T02:44:18.095Z,1.88
2023-04-03T02:46:51.896Z,1.84
2023-04-03T02:49:26.366Z,1.81
2023-04-03T02:52:00.157Z,1.78
2023-04-03T02:54:33.994Z,1.75
2023-04-03T02:57:10.620Z,1.73
2023-04-03T02:59:44.277Z,1.72
2023-04-03T03:02:18.334Z,1.72
2023-04-03T03:04:52.384Z,1.73
2023-04-03T03:07:27.287Z,1.73
2023-04-03T03:10:01.782Z,1.74
2023-04-03T03:12:35.413Z,1.73
2023-04-03T03:15:10.854Z,1.70
2023-04-03T03:17:44.483Z,1.67
2023-04-03T03:20:19.174Z,1.64
2023-04-03T03:22:52.657Z,1.61
2023-04-03T03:25:26.128Z,1.58
2023-04-03T03:28:00.169Z,1.55
2023-04-03T03:30:34.178Z,1.51
2023-04-03T03:33:08.403Z,1.47
2023-04-03T03:35:42.315Z,1.43
2023-04-03T03:38:16.291Z,1.39
2023-04-03T03:41:01.165Z,1.36
2023-04-03T03:43:36.014Z,1.34
2023-04-03T03:46:10.786Z,1.34
2023-04-03T03:48:44.585Z,1.34
2023-04-03T03:51:18.686Z,1.33
2023-04-03T03:53:53.430Z,1.33
2023-04-03T03:56:27.867Z,1.31
2023-04-03T03:59:01.412Z,1.28
2023-04-03T04:01:35.396Z,1.25
2023-04-03T04:04:09.577Z,1.21
2023-04-03T04:06:43.896Z,1.19
2023-04-03T04:09:18.008Z,1.16
2023-04-03T04:11:51.923Z,1.14
2023-04-03T04:14:25.923Z,1.11
2023-04-03T04:16:59.545Z,1.10
2023-04-03T04:19:34.574Z,1.07
2023-04-03T04:22:08.442Z,1.06
2023-04-03T04:24:42.976Z,1.09
2023-04-03T04:27:17.270Z,1.11
2023-04-03T04:29:51.291Z,1.15
2023-04-03T04:32:25.535Z,1.20
2023-04-03T04:34:59.486Z,1.24
2023-04-03T04:37:33.560Z,1.27
2023-04-03T04:40:09.644Z,1.28
2023-04-03T04:42:43.576Z,1.31
2023-04-03T04:45:18.380Z,1.35
2023-04-03T04:47:54.112Z,1.38
2023-04-03T04:50:28.210Z,1.42
2023-04-03T04:53:02.813Z,1.52
2023-04-03T04:55:36.796Z,1.77
2023-04-03T04:58:11.156Z,2.04
2023-04-03T05:00:45.487Z,2.35
2023-04-03T05:03:19.784Z,2.66
2023-04-03T05:05:54.475Z,2.83
2023-04-03T05:08:28.586Z,2.77
2023-04-03T05:11:02.675Z,2.69
2023-04-03T05:13:37.874Z,2.84
2023-04-03T05:16:12.741Z,3.10
2023-04-03T05:18:46.319Z,3.29
2023-04-03T05:21:27.515Z,3.30
2023-04-03T05:24:04.324Z,3.15
2023-04-03T05:26:39.760Z,3.05
2023-04-03T05:29:13.978Z,3.04
2023-04-03T05:31:48.620Z,3.07
2023-04-03T05:34:22.481Z,3.00
2023-04-03T05:36:56.443Z,2.95
2023-04-03T05:39:30.505Z,2.96
2023-04-03T05:42:04.781Z,2.95
2023-04-03T05:44:42.212Z,3.14
2023-04-03T05:47:15.884Z,3.53
2023-04-03T05:49:49.913Z,3.75
2023-04-03T05:52:28.325Z,4.52
2023-04-03T05:55:02.348Z,5.50
2023-04-03T05:57:37.363Z,5.88
2023-04-03T06:00:18.143Z,6.08
2023-04-03T06:02:55.625Z,6.04
2023-04-03T06:05:30.764Z,5.85
2023-04-03T06:08:04.480Z,5.69
2023-04-03T06:10:38.898Z,5.49
2023-04-03T06:13:13.299Z,5.46
2023-04-03T06:15:49.968Z,5.85
2023-04-03T06:18:23.927Z,6.03
2023-04-03T06:20:57.754Z,6.28
2023-04-03T06:23:31.688Z,6.53
2023-04-03T06:26:05.351Z,6.41
2023-04-03T06:28:39.501Z,6.23
2023-04-03T06:31:13.216Z,6.05
2023-04-03T06:33:46.733Z,6.11
2023-04-03T06:36:23.102Z,7.31
2023-04-03T06:38:57.107Z,9.73
2023-04-03T06:41:31.414Z,11.93
2023-04-03T06:44:05.132Z,14.32
2023-04-03T06:46:39.533Z,16.80
2023-04-03T06:49:13.924Z,18.74
2023-04-03T06:51:49.671Z,19.91
2023-04-03T06:54:23.414Z,20.73
2023-04-03T06:56:57.082Z,20.97
2023-04-03T06:59:33.844Z,21.82
2023-04-03T07:02:17.138Z,23.11
2023-04-03T07:04:51.571Z,24.40
2023-04-03T07:07:25.250Z,25.56
2023-04-03T07:09:58.765Z,26.70
2023-04-03T07:12:32.546Z,27.49
2023-04-03T07:15:11.460Z,27.87
2023-04-03T07:17:45.316Z,28.06
2023-04-03T07:20:20.321Z,28.05
2023-04-03T07:22:53.953Z,28.43
2023-04-03T07:25:27.827Z,28.37
2023-04-03T07:28:01.392Z,28.00
2023-04-03T07:30:35.473Z,28.07
2023-04-03T07:33:09.857Z,28.09
2023-04-03T07:35:44.227Z,28.08
2023-04-03T07:38:25.636Z,27.81
2023-04-03T07:40:59.632Z,27.59
2023-04-03T07:43:34.091Z,27.94
2023-04-03T07:46:09.379Z,29.00
2023-04-03T07:48:46.510Z,29.76
2023-04-03T07:51:21.136Z,30.30
2023-04-03T07:53:55.273Z,31.34
2023-04-03T07:56:28.954Z,32.36
2023-04-03T07:59:02.762Z,33.24
2023-04-03T08:01:36.889Z,33.88
2023-04-03T08:04:10.924Z,34.07
2023-04-03T08:06:46.918Z,33.95
2023-04-03T08:09:21.842Z,33.75
2023-04-03T08:11:55.822Z,33.57
2023-04-03T08:14:29.742Z,33.45
2023-04-03T08:17:05.808Z,34.08
2023-04-03T08:19:39.487Z,34.15
2023-04-03T08:22:13.607Z,32.34
2023-04-03T08:24:58.638Z,31.70
2023-04-03T08:27:37.088Z,32.33
2023-04-03T08:30:12.974Z,33.10
2023-04-03T08:32:47.130Z,32.34
2023-04-03T08:35:21.814Z,30.19
2023-04-03T08:37:55.873Z,27.71
2023-04-03T08:40:29.576Z,25.64
2023-04-03T08:43:15.602Z,25.68
2023-04-03T08:45:55.199Z,26.49
2023-04-03T08:48:34.452Z,27.39
2023-04-03T08:51:16.792Z,28.81
2023-04-03T08:53:59.535Z,29.75
2023-04-03T08:56:36.242Z,29.58
2023-04-03T08:59:16.985Z,29.00
2023-04-03T09:01:52.868Z,28.16
2023-04-03T09:04:29.018Z,27.05
2023-04-03T09:07:10.182Z,27.81
2023-04-03T09:09:50.193Z,28.95
2023-04-03T09:12:28.355Z,28.84
2023-04-03T09:15:05.433Z,28.30
2023-04-03T09:17:52.772Z,26.71
2023-04-03T09:20:33.749Z,25.43
2023-04-03T09:23:17.566Z,25.75
2023-04-03T09:25:54.664Z,26.48
2023-04-03T09:28:33.078Z,26.88
2023-04-03T09:31:20.907Z,26.12
2023-04-03T09:33:59.540Z,24.23
2023-04-03T09:36:50.372Z,22.49
2023-04-03T09:39:25.891Z,21.25
2023-04-03T09:42:21.897Z,20.03
2023-04-03T09:45:02.536Z,18.86
2023-04-03T09:47:37.990Z,17.86
2023-04-03T09:50:24.855Z,17.21
2023-04-03T09:52:58.649Z,18.21
2023-04-03T09:55:32.785Z,19.73
2023-04-03T09:58:26.129Z,21.08
2023-04-03T10:01:02.577Z,22.55
2023-04-03T10:03:40.657Z,23.42
2023-04-03T10:06:25.374Z,24.03
2023-04-03T10:09:06.542Z,25.92
2023-04-03T10:11:40.311Z,27.41
2023-04-03T10:14:21.018Z,27.97
2023-04-03T10:17:01.036Z,28.26
2023-04-03T10:19:49.729Z,28.18
2023-04-03T10:22:32.448Z,27.79
2023-04-03T10:25:15.152Z,26.47
2023-04-03T10:27:58.618Z,24.53
2023-04-03T10:30:45.833Z,22.78
2023-04-03T10:33:48.685Z,21.14
2023-04-03T10:36:37.278Z,20.40
2023-04-03T10:39:24.139Z,20.14
2023-04-03T10:42:16.738Z,19.54
2023-04-03T10:45:04.806Z,18.88
2023-04-03T10:47:45.796Z,19.18
2023-04-03T10:50:39.174Z,19.25
2023-04-03T10:53:21.947Z,18.91
2023-04-03T10:56:03.068Z,17.99
2023-04-03T10:58:42.278Z,17.14
2023-04-03T11:01:20.141Z,16.72
2023-04-03T11:03:57.136Z,16.43
2023-04-03T11:06:35.874Z,15.97
2023-04-03T11:09:15.893Z,15.94
2023-04-03T11:11:50.623Z,16.64
2023-04-03T11:14:31.529Z,17.34
2023-04-03T11:17:23.050Z,19.15
2023-04-03T11:20:04.453Z,20.43
2023-04-03T11:22:42.212Z,21.39
2023-04-03T11:25:25.804Z,22.35
2023-04-03T11:28:03.013Z,22.63
2023-04-03T11:30:46.491Z,22.83
2023-04-03T11:33:31.580Z,22.28
2023-04-03T11:36:22.867Z,21.53
2023-04-03T11:39:03.994Z,20.74
2023-04-03T11:41:38.354Z,19.85
2023-04-03T11:44:39.734Z,19.62
2023-04-03T11:47:14.784Z,20.82
2023-04-03T11:50:04.188Z,22.53
2023-04-03T11:53:06.393Z,23.71
2023-04-03T11:56:09.612Z,24.18
2023-04-03T11:58:43.281Z,23.84
2023-04-03T12:01:50.601Z,22.73
2023-04-03T12:04:26.723Z,21.27
2023-04-03T12:07:21.400Z,20.12
2023-04-03T12:10:03.354Z,19.05
2023-04-03T12:12:44.305Z,18.22
2023-04-03T12:15:49.884Z,18.40
2023-04-03T12:19:04.391Z,19.55
2023-04-03T12:22:15.267Z,19.84
2023-04-03T12:24:51.593Z,20.38
2023-04-03T12:27:41.648Z,22.08
2023-04-03T12:30:28.400Z,22.75
2023-04-03T12:33:23.625Z,21.78
2023-04-03T12:36:08.038Z,20.62
2023-04-03T12:39:06.110Z,19.67
2023-04-03T12:41:51.254Z,18.92
2023-04-03T12:44:41.077Z,18.52
2023-04-03T12:47:28.209Z,18.58
2023-04-03T12:50:04.461Z,18.53
2023-04-03T12:52:47.088Z,18.27
2023-04-03T12:55:23.140Z,17.87
2023-04-03T12:57:57.131Z,17.20
2023-04-03T13:00:40.988Z,16.28
2023-04-03T13:03:28.367Z,15.44
2023-04-03T13:06:05.369Z,15.30
2023-04-03T13:08:39.455Z,15.63
2023-04-03T13:11:16.014Z,15.83
2023-04-03T13:14:01.690Z,15.52
2023-04-03T13:16:36.304Z,15.22
2023-04-03T13:19:18.548Z,14.78
2023-04-03T13:21:56.682Z,14.31
2023-04-03T13:24:31.921Z,13.92
2023-04-03T13:27:06.269Z,13.58
2023-04-03T13:29:41.926Z,13.54
2023-04-03T13:32:23.912Z,13.52
2023-04-03T13:35:00.363Z,14.27
2023-04-03T13:37:39.938Z,14.93
2023-04-03T13:40:18.088Z,14.81
2023-04-03T13:43:04.486Z,14.27
2023-04-03T13:45:39.014Z,13.73
2023-04-03T13:48:23.559Z,13.29
2023-04-03T13:51:07.206Z,13.01
2023-04-03T13:53:49.780Z,13.06
2023-04-03T13:56:33.787Z,13.11
2023-04-03T13:59:24.116Z,13.00
2023-04-03T14:02:13.743Z,12.93
2023-04-03T14:05:01.448Z,13.00
2023-04-03T14:07:35.492Z,13.04
2023-04-03T14:10:11.507Z,13.01
2023-04-03T14:12:45.090Z,12.77
2023-04-03T14:15:23.141Z,12.44
2023-04-03T14:17:59.159Z,12.15
2023-04-03T14:20:34.647Z,11.87
2023-04-03T14:23:08.927Z,11.73
2023-04-03T14:25:43.407Z,11.67
2023-04-03T14:28:22.555Z,11.58
2023-04-03T14:30:56.696Z,11.43
2023-04-03T14:33:32.978Z,11.20
2023-04-03T14:36:15.756Z,10.96
2023-04-03T14:38:51.904Z,10.80
2023-04-03T14:41:27.354Z,10.75
2023-04-03T14:44:01.421Z,10.74
2023-04-03T14:46:54.442Z,10.72
2023-04-03T14:49:31.927Z,10.65
2023-04-03T14:52:06.548Z,10.57
2023-04-03T14:54:40.581Z,10.47
2023-04-03T14:57:17.555Z,10.30
2023-04-03T14:59:51.771Z,10.14
2023-04-03T15:02:36.709Z,10.03
2023-04-03T15:05:13.985Z,9.89
2023-04-03T15:07:51.953Z,9.77
2023-04-03T15:10:27.274Z,9.75
2023-04-03T15:13:01.892Z,9.74
2023-04-03T15:15:37.034Z,9.75
2023-04-03T15:18:13.551Z,9.74
2023-04-03T15:20:48.587Z,9.74
2023-04-03T15:23:27.325Z,9.66
2023-04-03T15:25:59.300Z,9.54
2023-04-03T15:28:36.406Z,9.40
2023-04-03T15:31:11.462Z,9.28
2023-04-03T15:33:45.450Z,9.13
2023-04-03T15:38:57.679Z,9.05
2023-04-03T15:41:31.882Z,8.96
2023-04-03T15:44:05.766Z,8.87
2023-04-03T15:46:39.708Z,8.82
2023-04-03T15:49:13.646Z,8.81
2023-04-03T15:51:47.795Z,8.80
2023-04-03T15:54:21.802Z,8.69
2023-04-03T15:56:55.736Z,8.62
2023-04-03T15:59:30.417Z,8.59
2023-04-03T16:02:08.907Z,8.57
2023-04-03T16:04:43.130Z,8.54
2023-04-03T16:07:17.447Z,8.48
2023-04-03T16:09:51.287Z,8.42
2023-04-03T16:12:24.688Z,8.37
2023-04-03T16:14:58.665Z,8.33
2023-04-03T16:17:33.888Z,8.32
2023-04-03T16:20:09.850Z,8.29
2023-04-03T16:22:47.174Z,8.22
2023-04-03T16:25:22.534Z,8.16
2023-04-03T16:27:56.901Z,8.14
2023-04-03T16:30:30.808Z,8.12
2023-04-03T16:33:05.272Z,8.10
2023-04-03T16:35:40.422Z,8.08
2023-04-03T16:38:14.542Z,7.99
2023-04-03T16:40:49.909Z,7.91
2023-04-03T16:43:24.207Z,7.83
2023-04-03T16:45:58.201Z,7.76
2023-04-03T16:48:32.759Z,7.69
2023-04-03T16:51:06.705Z,7.62
2023-04-03T16:53:41.523Z,7.56
2023-04-03T16:56:15.611Z,7.50
2023-04-03T16:58:52.884Z,7.43
2023-04-03T17:01:27.283Z,7.39
2023-04-03T17:04:01.693Z,7.37
2023-04-03T17:06:35.545Z,7.33
2023-04-03T17:09:10.699Z,7.27
2023-04-03T17:11:47.453Z,7.23
2023-04-03T17:14:23.593Z,7.20
2023-04-03T17:16:57.523Z,7.17
2023-04-03T17:19:32.439Z,7.12
2023-04-03T17:22:07.276Z,7.07
2023-04-03T17:24:42.058Z,7.04
2023-04-03T17:27:20.379Z,7.00
2023-04-03T17:29:55.160Z,6.97
2023-04-03T17:32:33.024Z,6.95
2023-04-03T17:35:11.630Z,6.94
2023-04-03T17:37:47.861Z,6.91
2023-04-03T17:40:24.089Z,6.87
2023-04-03T17:42:58.370Z,6.82
2023-04-03T17:45:34.070Z,6.77
2023-04-03T17:48:09.207Z,6.69
2023-04-03T17:50:44.459Z,6.62
2023-04-03T17:53:22.072Z,6.60
2023-04-03T17:55:57.226Z,6.59
2023-04-03T17:58:33.896Z,6.57
2023-04-03T18:01:15.518Z,6.54
2023-04-03T18:03:52.129Z,6.55
2023-04-03T18:06:34.580Z,6.56
2023-04-03T18:09:17.191Z,6.57
2023-04-03T18:11:56.632Z,6.59
2023-04-03T18:14:32.468Z,6.59
2023-04-03T18:17:14.998Z,6.57
2023-04-03T18:19:53.174Z,6.55
2023-04-03T18:22:30.083Z,6.54
2023-04-03T18:25:08.323Z,6.54
2023-04-03T18:27:46.314Z,6.49
2023-04-03T18:30:20.310Z,6.44
2023-04-03T18:32:59.000Z,6.38
2023-04-03T18:35:37.721Z,6.35
2023-04-03T18:38:16.396Z,6.34
2023-04-03T18:40:54.659Z,6.32
2023-04-03T18:43:37.036Z,6.31
2023-04-03T18:46:14.327Z,6.29
2023-04-03T18:48:51.234Z,6.26
2023-04-03T18:51:28.398Z,6.23
2023-04-03T18:54:05.156Z,6.21
2023-04-03T18:56:41.757Z,6.14
2023-04-03T18:59:18.653Z,6.07
2023-04-03T19:02:01.251Z,6.04
2023-04-03T19:04:40.985Z,6.00
2023-04-03T19:07:20.108Z,5.97
2023-04-03T19:10:00.615Z,5.98
2023-04-03T19:12:37.998Z,5.99
2023-04-03T19:15:14.770Z,5.98
2023-04-03T19:17:53.348Z,5.98
2023-04-03T19:20:29.766Z,5.94
2023-04-03T19:23:07.392Z,5.93
2023-04-03T19:25:50.200Z,5.91
2023-04-03T19:28:27.349Z,5.89
2023-04-03T19:31:05.031Z,5.85
2023-04-03T19:33:44.298Z,5.81
2023-04-03T19:36:22.614Z,5.76
2023-04-03T19:39:03.517Z,5.73
2023-04-03T19:41:45.560Z,5.70
2023-04-03T19:44:21.829Z,5.67
2023-04-03T19:47:01.518Z,5.68
2023-04-03T19:49:42.064Z,5.68
2023-04-03T19:52:32.300Z,5.66
2023-04-03T19:55:10.296Z,5.61
2023-04-03T19:57:49.793Z,5.60
2023-04-03T20:00:27.854Z,5.59
2023-04-03T20:03:03.865Z,5.58
2023-04-03T20:05:39.916Z,5.58
2023-04-03T20:08:15.997Z,5.56
2023-04-03T20:10:52.421Z,5.52
2023-04-03T20:13:31.329Z,5.51
2023-04-03T20:16:11.003Z,5.50
2023-04-03T20:18:47.310Z,5.49
2023-04-03T20:21:23.073Z,5.45
2023-04-03T20:23:57.676Z,5.41
2023-04-03T20:26:39.223Z,5.37
2023-04-03T20:29:17.124Z,5.32
2023-04-03T20:31:51.448Z,5.31
2023-04-03T20:34:25.658Z,5.31
2023-04-03T20:37:00.534Z,5.28
2023-04-03T20:39:35.395Z,5.24
2023-04-03T20:42:11.328Z,5.19
2023-04-03T20:44:46.375Z,5.13
2023-04-03T20:47:20.258Z,5.07
2023-04-03T20:49:54.538Z,5.01
2023-04-03T20:52:28.348Z,4.97
2023-04-03T20:55:01.915Z,4.94
2023-04-03T20:57:37.039Z,4.91
2023-04-03T21:00:14.018Z,4.89
2023-04-03T21:02:49.000Z,4.87
2023-04-03T21:05:26.920Z,4.85
2023-04-03T21:08:36.255Z,4.82
2023-04-03T21:11:44.150Z,4.79
2023-04-03T21:14:52.578Z,4.75
2023-04-03T21:17:22.606Z,4.69
2023-04-03T21:19:56.754Z,4.65
2023-04-03T21:22:30.686Z,4.63
2023-04-03T21:25:04.545Z,4.57
2023-04-03T21:27:38.771Z,4.54
2023-04-03T21:30:15.976Z,4.52
2023-04-03T21:32:49.838Z,4.47
2023-04-03T21:35:24.028Z,4.42
2023-04-03T21:37:58.208Z,4.36
2023-04-03T21:40:32.948Z,4.33
2023-04-03T21:43:06.943Z,4.31
2023-04-03T21:45:41.105Z,4.29
2023-04-03T21:48:18.088Z,4.27
2023-04-03T21:50:54.605Z,4.25
2023-04-03T21:53:30.028Z,4.22
2023-04-03T21:56:04.265Z,4.19
2023-04-03T21:58:38.603Z,4.18
2023-04-03T22:01:17.037Z,4.17
2023-04-03T22:03:50.902Z,4.17
2023-04-03T22:06:24.892Z,4.17
2023-04-03T22:08:58.884Z,4.16
2023-04-03T22:11:33.386Z,4.15
2023-04-03T22:14:07.038Z,4.13
2023-04-03T22:16:41.642Z,4.12
2023-04-03T22:19:15.931Z,4.09
2023-04-03T22:21:49.836Z,4.04
2023-04-03T22:24:25.353Z,3.99
2023-04-03T22:26:59.486Z,3.97
2023-04-03T22:29:33.566Z,3.96
2023-04-03T22:32:08.119Z,3.96
2023-04-03T22:34:42.189Z,3.96
2023-04-03T22:37:15.727Z,3.94
2023-04-03T22:39:49.486Z,3.90
2023-04-03T22:42:23.017Z,3.84
2023-04-03T22:44:56.844Z,3.79
2023-04-03T22:47:30.546Z,3.75
2023-04-03T22:50:04.297Z,3.73
2023-04-03T22:52:37.724Z,3.74
2023-04-03T22:55:19.389Z,3.72
2023-04-03T22:57:54.635Z,3.70
2023-04-03T23:00:28.772Z,3.65
2023-04-03T23:03:03.649Z,3.61
2023-04-03T23:05:41.185Z,3.57
2023-04-03T23:08:14.621Z,3.56
2023-04-03T23:10:59.680Z,3.55
2023-04-03T23:13:33.363Z,3.56
2023-04-03T23:16:08.428Z,3.56
2023-04-03T23:18:44.055Z,3.54
2023-04-03T23:21:18.089Z,3.52
2023-04-03T23:23:52.408Z,3.50
2023-04-03T23:26:26.818Z,3.49
2023-04-03T23:29:00.877Z,3.48
2023-04-03T23:31:34.468Z,3.47
2023-04-03T23:34:08.403Z,3.45
2023-04-03T23:36:43.529Z,3.45
2023-04-03T23:39:20.351Z,3.41
2023-04-03T23:41:54.893Z,3.37
2023-04-03T23:44:28.998Z,3.31
2023-04-03T23:47:02.518Z,3.28
2023-04-03T23:49:35.902Z,3.24
2023-04-03T23:52:09.813Z,3.18
2023-04-03T23:54:43.687Z,3.13
2023-04-03T23:57:17.311Z,3.09
2023-04-03T23:59:51.329Z,3.06
